Brainardsville, New York
Current Conditions -  °F | °C
As of 3:53 PM on Tuesday 25 Nov 2014 (Local Time) from KPBG Reporting Station
Broken Clouds Broken Clouds  
Wind Chill: 42°   Ceiling: 6000
Heat Index: 45°   Visibility: 10mi
Dew Point: 25°   Wind: 6mph
Humidity: 46%   Direction: 210°SSW
Pressure: 29.91"   Gusts: 18mph
Location:  44.86°N, 74.03°W
Report Text: KPBG 252053Z AUTO 21005G16KT 10SM BKN060 07/M04 A2991 RMK AO2 SLP128 T00721039 52021
Loading
Personal Weather Stations






























Interactive Weather Map New forecast layout! Learn more

10-Day Weather Forecast

Advertisements
Track Severe Weather on mobile